createdAt,value
2022-07-26T00:01:04.445Z,7.90
2022-07-26T00:04:16.610Z,10.33
2022-07-26T00:07:28.685Z,9.80
2022-07-26T00:10:44.189Z,11.28
2022-07-26T00:13:55.893Z,11.48
2022-07-26T00:17:08.966Z,7.80
2022-07-26T00:20:23.301Z,8.95
2022-07-26T00:23:38.653Z,10.40
2022-07-26T00:26:50.257Z,10.95
2022-07-26T00:30:01.999Z,9.40
2022-07-26T00:33:14.605Z,10.18
2022-07-26T00:36:35.136Z,9.00
2022-07-26T00:39:48.074Z,10.48
2022-07-26T00:42:59.939Z,10.00
2022-07-26T00:46:14.226Z,9.08
2022-07-26T00:49:26.299Z,12.43
2022-07-26T00:52:38.130Z,10.23
2022-07-26T00:55:50.184Z,7.58
2022-07-26T00:59:01.773Z,7.60
2022-07-26T01:02:15.559Z,9.00
2022-07-26T01:05:29.510Z,8.65
2022-07-26T01:08:41.478Z,8.90
2022-07-26T01:11:53.207Z,11.33
2022-07-26T01:15:04.840Z,8.45
2022-07-26T01:18:16.527Z,10.38
2022-07-26T01:21:32.386Z,11.63
2022-07-26T01:24:44.242Z,11.15
2022-07-26T01:27:56.050Z,10.88
2022-07-26T01:31:07.993Z,10.70
2022-07-26T01:34:19.866Z,8.30
2022-07-26T01:37:31.558Z,9.90
2022-07-26T01:40:43.376Z,10.48
2022-07-26T01:43:55.030Z,10.63
2022-07-26T01:47:07.898Z,11.25
2022-07-26T01:50:20.205Z,9.25
2022-07-26T01:53:31.942Z,8.63
2022-07-26T01:56:43.704Z,10.28
2022-07-26T01:59:55.679Z,14.08
2022-07-26T02:03:07.926Z,13.60
2022-07-26T02:06:19.656Z,10.73
2022-07-26T02:09:32.021Z,11.78
2022-07-26T02:12:45.129Z,10.45
2022-07-26T02:15:58.900Z,12.08
2022-07-26T02:19:10.781Z,13.18
2022-07-26T02:22:23.142Z,12.05
2022-07-26T02:25:35.173Z,13.20
2022-07-26T02:28:46.710Z,8.23
2022-07-26T02:31:59.470Z,12.23
2022-07-26T02:35:12.711Z,11.90
2022-07-26T02:38:25.236Z,9.05
2022-07-26T02:41:37.179Z,12.40
2022-07-26T02:44:48.766Z,9.98
2022-07-26T02:48:01.881Z,9.63
2022-07-26T02:51:14.086Z,9.05
2022-07-26T02:54:26.346Z,11.13
2022-07-26T02:57:46.258Z,8.00
2022-07-26T03:00:51.934Z,9.28
2022-07-26T03:04:03.730Z,8.90
2022-07-26T03:07:15.348Z,9.18
2022-07-26T03:10:27.045Z,7.38
2022-07-26T03:13:38.682Z,6.73
2022-07-26T03:16:50.378Z,8.25
2022-07-26T03:20:02.405Z,8.10
2022-07-26T03:23:14.116Z,9.15
2022-07-26T03:26:25.913Z,8.48
2022-07-26T03:29:37.686Z,8.08
2022-07-26T03:32:49.568Z,9.25
2022-07-26T03:36:01.161Z,8.55
2022-07-26T03:39:12.792Z,13.30
2022-07-26T03:42:24.609Z,10.23
2022-07-26T03:45:36.389Z,13.45
2022-07-26T03:48:48.051Z,8.45
2022-07-26T03:52:00.188Z,8.35
2022-07-26T03:55:24.876Z,10.18
2022-07-26T03:58:36.827Z,10.00
2022-07-26T04:01:51.684Z,10.00
2022-07-26T04:05:03.357Z,12.75
2022-07-26T04:08:15.459Z,15.70
2022-07-26T04:11:28.920Z,10.78
2022-07-26T04:14:42.593Z,13.68
2022-07-26T04:17:54.960Z,12.80
2022-07-26T04:21:07.059Z,13.80
2022-07-26T04:24:18.653Z,14.75
2022-07-26T04:27:30.304Z,12.78
2022-07-26T04:30:42.268Z,12.68
2022-07-26T04:33:54.466Z,85.18
2022-07-26T04:37:07.657Z,19.28
2022-07-26T04:40:23.900Z,20.30
2022-07-26T04:43:35.853Z,21.43
2022-07-26T04:46:47.748Z,24.95
2022-07-26T04:49:59.608Z,18.00
2022-07-26T04:53:11.544Z,15.40
2022-07-26T04:56:23.296Z,14.10
2022-07-26T05:02:35.284Z,17.65
2022-07-26T05:05:48.191Z,16.28
2022-07-26T05:09:01.703Z,18.90
2022-07-26T05:12:15.850Z,20.95
2022-07-26T05:15:35.155Z,41.90
2022-07-26T05:18:45.932Z,34.03
2022-07-26T05:21:55.626Z,27.93
2022-07-26T05:25:08.373Z,24.90
2022-07-26T05:28:20.125Z,30.30
2022-07-26T05:31:32.926Z,58.65
2022-07-26T05:34:44.532Z,66.65
2022-07-26T05:37:56.540Z,37.68
2022-07-26T05:41:08.529Z,35.80
2022-07-26T05:44:20.286Z,29.90
2022-07-26T05:47:32.857Z,31.73
2022-07-26T05:50:44.621Z,38.08
2022-07-26T05:53:56.307Z,35.83
2022-07-26T05:57:10.199Z,38.58
2022-07-26T06:00:23.204Z,40.38
2022-07-26T06:03:34.962Z,140.28
2022-07-26T06:06:46.736Z,43.53
2022-07-26T06:09:58.686Z,53.60
2022-07-26T06:13:10.388Z,46.40
2022-07-26T06:16:22.296Z,79.68
2022-07-26T06:19:36.317Z,96.70
2022-07-26T06:22:48.189Z,46.75
2022-07-26T06:26:00.005Z,108.23
2022-07-26T06:29:11.934Z,59.83
2022-07-26T06:32:23.835Z,39.70
2022-07-26T06:35:38.508Z,38.53
2022-07-26T06:38:50.613Z,36.83
2022-07-26T06:42:02.472Z,26.58
2022-07-26T06:45:16.830Z,39.25
2022-07-26T06:59:42.858Z,15.25
2022-07-26T07:02:56.089Z,13.10
2022-07-26T07:11:24.133Z,14.85
2022-07-26T07:19:21.564Z,8.70
2022-07-26T07:40:59.797Z,11.10
2022-07-26T07:50:17.232Z,9.88
2022-07-26T07:53:39.323Z,23.70
2022-07-26T08:26:26.320Z,10.73
2022-07-26T08:29:38.376Z,11.45
2022-07-26T08:32:50.400Z,15.40
2022-07-26T08:41:45.320Z,13.63
2022-07-26T08:44:57.848Z,12.55
2022-07-26T08:51:14.671Z,18.50
2022-07-26T08:57:38.955Z,18.28
2022-07-26T09:00:51.234Z,17.50
2022-07-26T09:04:28.789Z,18.23
2022-07-26T09:07:28.428Z,15.98
2022-07-26T09:10:43.607Z,21.65
2022-07-26T09:14:07.052Z,16.78
2022-07-26T09:17:20.212Z,17.88
2022-07-26T09:20:34.504Z,20.25
2022-07-26T09:23:48.228Z,13.90
2022-07-26T09:27:08.179Z,12.88
2022-07-26T09:34:04.605Z,17.78
2022-07-26T09:37:16.929Z,14.25
2022-07-26T09:40:38.629Z,12.75
2022-07-26T09:43:54.104Z,14.18
2022-07-26T09:47:06.628Z,14.88
2022-07-26T09:50:25.773Z,13.88
2022-07-26T09:53:51.599Z,16.83
2022-07-26T09:57:04.323Z,17.95
2022-07-26T10:00:21.501Z,12.78
2022-07-26T10:03:34.822Z,17.98
2022-07-26T10:19:02.579Z,16.13
2022-07-26T10:26:04.453Z,19.73
2022-07-26T10:29:32.348Z,16.75
2022-07-26T10:32:44.688Z,17.90
2022-07-26T10:35:56.561Z,14.40
2022-07-26T10:39:16.563Z,17.48
2022-07-26T10:42:28.332Z,14.88
2022-07-26T10:45:51.445Z,15.30
2022-07-26T10:49:08.251Z,17.95
2022-07-26T10:55:32.880Z,20.13
2022-07-26T10:58:50.841Z,15.85
2022-07-26T11:02:02.941Z,16.65
2022-07-26T11:05:18.603Z,16.88
2022-07-26T11:09:02.480Z,20.38
2022-07-26T11:12:27.212Z,25.38
2022-07-26T11:15:40.002Z,20.33
2022-07-26T11:29:37.283Z,25.25
2022-07-26T11:32:46.219Z,23.80
2022-07-26T11:52:25.654Z,24.85
2022-07-26T11:56:19.289Z,15.18
2022-07-26T11:59:32.981Z,14.83
2022-07-26T12:14:18.731Z,12.15
2022-07-26T12:26:42.905Z,11.45
2022-07-26T12:37:40.994Z,15.33
2022-07-26T12:40:53.318Z,11.70
2022-07-26T12:44:07.127Z,14.73
2022-07-26T12:56:23.779Z,20.13
2022-07-26T13:23:46.158Z,19.48
2022-07-26T13:31:55.863Z,12.18
2022-07-26T13:59:13.421Z,9.45
2022-07-26T14:02:26.458Z,6.28
2022-07-26T14:05:39.518Z,7.35
2022-07-26T14:08:52.963Z,6.53
2022-07-26T14:12:06.109Z,5.58
2022-07-26T14:15:22.947Z,9.83
2022-07-26T14:18:36.773Z,5.65
2022-07-26T14:21:59.913Z,6.05
2022-07-26T14:25:07.802Z,5.88
2022-07-26T14:28:20.106Z,4.13
2022-07-26T14:31:34.137Z,7.40
2022-07-26T14:34:46.219Z,6.93
2022-07-26T14:37:58.139Z,7.63
2022-07-26T14:41:10.383Z,5.85
2022-07-26T14:44:26.378Z,5.70
2022-07-26T14:47:38.183Z,6.00
2022-07-26T14:51:09.026Z,7.63
2022-07-26T14:54:07.930Z,6.70
2022-07-26T14:57:24.533Z,7.55
2022-07-26T15:00:39.598Z,15.25
2022-07-26T15:03:52.936Z,7.40
2022-07-26T15:07:04.775Z,9.20
2022-07-26T15:10:21.449Z,6.95
2022-07-26T15:13:33.304Z,17.58
2022-07-26T15:16:45.377Z,13.13
2022-07-26T15:19:57.561Z,5.60
2022-07-26T15:23:11.648Z,7.00
2022-07-26T15:26:23.707Z,7.05
2022-07-26T15:29:36.040Z,8.05
2022-07-26T15:32:48.789Z,10.38
2022-07-26T15:36:05.695Z,11.05
2022-07-26T15:39:17.809Z,10.70
2022-07-26T15:42:29.428Z,8.75
2022-07-26T15:45:43.813Z,9.58
2022-07-26T15:48:55.804Z,9.85
2022-07-26T15:52:08.882Z,9.30
2022-07-26T15:55:22.937Z,9.75
2022-07-26T15:58:34.842Z,8.43
2022-07-26T16:01:47.400Z,8.83
2022-07-26T16:04:59.119Z,9.50
2022-07-26T16:08:11.711Z,10.73
2022-07-26T16:11:23.617Z,13.25
2022-07-26T16:14:35.296Z,14.25
2022-07-26T16:17:47.282Z,11.55
2022-07-26T16:20:59.252Z,13.13
2022-07-26T16:27:53.434Z,16.65
2022-07-26T16:31:06.134Z,9.30
2022-07-26T16:34:18.828Z,11.08
2022-07-26T16:37:31.002Z,10.63
2022-07-26T16:52:40.536Z,11.48
2022-07-26T17:00:15.821Z,12.10
2022-07-26T17:03:27.835Z,11.90
2022-07-26T17:10:39.199Z,11.55
2022-07-26T17:13:51.285Z,14.03
2022-07-26T17:17:14.989Z,12.95
2022-07-26T17:20:27.122Z,11.68
2022-07-26T17:27:20.105Z,10.90
2022-07-26T17:38:13.435Z,13.93
2022-07-26T17:41:32.419Z,11.48
2022-07-26T17:44:54.998Z,12.13
2022-07-26T17:52:09.821Z,9.20
2022-07-26T17:55:22.789Z,10.68
2022-07-26T18:06:33.378Z,14.60
2022-07-26T18:09:45.352Z,16.78
2022-07-26T18:12:58.106Z,13.65
2022-07-26T18:16:13.342Z,8.73
2022-07-26T18:27:44.119Z,18.40
2022-07-26T18:38:42.449Z,21.35
2022-07-26T18:41:55.258Z,17.05
2022-07-26T18:45:07.239Z,12.15
2022-07-26T18:48:20.998Z,11.45
2022-07-26T18:51:34.697Z,13.03
2022-07-26T18:55:01.262Z,12.40
2022-07-26T18:58:13.169Z,14.13
2022-07-26T19:40:10.706Z,14.75
2022-07-26T19:43:35.832Z,11.85
2022-07-26T19:47:00.183Z,28.48
2022-07-26T19:50:18.667Z,14.20
2022-07-26T19:53:40.730Z,14.70
2022-07-26T20:29:17.423Z,12.28
2022-07-26T20:32:29.118Z,16.10
2022-07-26T20:35:41.502Z,11.23
2022-07-26T20:39:10.001Z,12.08
2022-07-26T20:42:24.620Z,10.18
2022-07-26T20:48:40.081Z,20.45
2022-07-26T20:51:52.231Z,15.83
2022-07-26T20:55:04.024Z,11.08
2022-07-26T20:58:15.981Z,11.45
2022-07-26T21:01:29.663Z,13.70
2022-07-26T21:10:42.134Z,10.75
2022-07-26T21:13:53.963Z,12.05
2022-07-26T21:17:11.594Z,13.18
2022-07-26T21:26:55.255Z,11.23
2022-07-26T21:33:44.798Z,11.73
2022-07-26T21:36:57.183Z,16.50
2022-07-26T21:40:10.632Z,10.93
2022-07-26T21:43:22.581Z,15.78
2022-07-26T21:46:35.907Z,13.23
2022-07-26T21:49:48.062Z,13.48
2022-07-26T21:52:59.811Z,10.35
2022-07-26T21:56:12.326Z,12.85
2022-07-26T21:59:24.191Z,12.45
2022-07-26T22:02:36.057Z,15.88
2022-07-26T22:05:48.737Z,13.83
2022-07-26T22:09:02.817Z,10.48
2022-07-26T22:12:15.973Z,10.33
2022-07-26T22:19:22.727Z,10.28
2022-07-26T22:26:14.986Z,9.00
2022-07-26T22:33:12.066Z,9.98
2022-07-26T22:56:46.578Z,10.15
2022-07-26T23:03:38.508Z,10.70
2022-07-26T23:11:48.748Z,8.53
2022-07-26T23:15:51.535Z,10.88
2022-07-26T23:19:00.726Z,9.20
2022-07-26T23:26:30.162Z,10.90
2022-07-26T23:29:44.674Z,12.50
2022-07-26T23:32:58.095Z,12.03
2022-07-26T23:36:10.427Z,12.28
2022-07-26T23:47:20.057Z,12.95
2022-07-26T23:50:32.371Z,13.03
2022-07-26T23:53:44.135Z,9.33
